Latest Weather Observations for Outer Harbor (Black Pole)

IDS60901

Issued at 1:01 pm CDT Thursday 23 February 2017 (issued every 10 minutes, with the page automatically refreshed every 10 minutes)

About weather observations | Map of Adelaide area stations | Latest observations for Adelaide area | Other Formats
Station Details ID: 023052 Name: BLACK POLE Lat: -34.73 Lon: 138.47 Height: 6.27 m
Data from the previous 72 hours. | See also: Recent months for locations in South Australia
Date/Time
CDT
Temp
°C
App
Temp
°C
Dew
Point
°C
Rel
Hum
%
Delta-T
°C
Wind Press
QNH
hPa
Press
MSL
hPa
Rain since
9am
mm
Dir  Spd
km/h
Gust
km/h
Spd
kts
Gust
kts
23/12:30pm - - - - - SSW 20 24 11 13 - - -
23/12:00pm - - - - - SSW 20 26 11 14 - - -
23/11:30am - - - - - SSW 22 26 12 14 - - -
23/11:00am - - - - - SSW 24 32 13 17 - - -
23/10:30am - - - - - SSW 20 28 11 15 - - -
23/10:00am - - - - - SSW 20 26 11 14 - - -
23/09:30am - - - - - SSW 26 30 14 16 - - -
23/09:00am - - - - - SSW 26 33 14 18 - - -
23/08:30am - - - - - SSW 24 32 13 17 - - -
23/08:00am - - - - - SW 24 35 13 19 - - -
23/07:30am - - - - - SW 24 28 13 15 - - -
23/07:00am - - - - - WSW 28 35 15 19 - - -
23/06:30am - - - - - SW 26 33 14 18 - - -
23/06:00am - - - - - WSW 28 35 15 19 - - -
23/05:30am - - - - - WSW 28 35 15 19 - - -
23/05:00am - - - - - WSW 24 35 13 19 - - -
23/04:30am - - - - - WSW 32 39 17 21 - - -
23/04:00am - - - - - WSW 32 37 17 20 - - -
23/03:30am - - - - - SW 30 41 16 22 - - -
23/03:00am - - - - - WSW 30 37 16 20 - - -
23/02:30am - - - - - SW 28 35 15 19 - - -
23/02:00am - - - - - WSW 28 33 15 18 - - -
23/01:30am - - - - - WSW 28 37 15 20 - - -
23/01:00am - - - - - WSW 32 39 17 21 - - -
23/12:30am - - - - - WSW 32 39 17 21 - - -
23/12:00am - - - - - WSW 32 37 17 20 - - -
 
Date/Time
CDT
Temp
°C
App
Temp
°C
Dew
Point
°C
Rel
Hum
%
Delta-T
°C
Wind Press
QNH
hPa
Press
MSL
hPa
Rain since
9am
mm
Dir  Spd
km/h
Gust
km/h
Spd
kts
Gust
kts
22/11:30pm - - - - - WSW 30 39 16 21 - - -
22/11:00pm - - - - - WSW 33 41 18 22 - - -
22/10:30pm - - - - - WSW 30 37 16 20 - - -
22/10:00pm - - - - - WSW 37 43 20 23 - - -
22/09:30pm - - - - - W 35 41 19 22 - - -
22/09:00pm - - - - - WSW 37 44 20 24 - - -
22/08:30pm - - - - - WSW 37 44 20 24 - - -
22/08:00pm - - - - - WSW 35 43 19 23 - - -
22/07:30pm - - - - - WSW 32 41 17 22 - - -
22/07:00pm - - - - - WSW 35 41 19 22 - - -
22/06:30pm - - - - - W 32 37 17 20 - - -
22/06:00pm - - - - - WSW 32 39 17 21 - - -
22/05:30pm - - - - - WSW 35 43 19 23 - - -
22/05:00pm - - - - - W 37 44 20 24 - - -
22/04:30pm - - - - - W 32 37 17 20 - - -
22/04:00pm - - - - - W 33 41 18 22 - - -
22/03:30pm - - - - - W 35 41 19 22 - - -
22/03:00pm - - - - - W 37 43 20 23 - - -
22/02:30pm - - - - - W 33 41 18 22 - - -
22/02:00pm - - - - - W 35 43 19 23 - - -
22/01:48pm - - - - - WNW 22 43 12 23 - - -
22/01:30pm - - - - - WNW 13 17 7 9 - - -
22/01:00pm - - - - - WNW 6 9 3 5 - - -
22/12:30pm - - - - - W 13 17 7 9 - - -
22/12:00pm - - - - - WSW 13 17 7 9 - - -
22/11:30am - - - - - WSW 33 39 18 21 - - -
22/11:00am - - - - - WSW 44 57 24 31 - - -
22/10:30am - - - - - NW 35 56 19 30 - - -
22/10:00am - - - - - NW 41 50 22 27 - - -
22/09:40am - - - - - NNW 37 48 20 26 - - -
22/09:30am - - - - - N 39 56 21 30 - - -
22/09:29am - - - - - N 37 56 20 30 - - -
22/09:00am - - - - - NNE 28 33 15 18 - - -
22/08:30am - - - - - NE 22 26 12 14 - - -
22/08:00am - - - - - NE 26 30 14 16 - - -
22/07:30am - - - - - NE 30 35 16 19 - - -
22/07:00am - - - - - NNE 26 33 14 18 - - -
22/06:30am - - - - - NE 28 32 15 17 - - -
22/06:00am - - - - - NE 30 33 16 18 - - -
22/05:30am - - - - - NE 32 35 17 19 - - -
22/05:00am - - - - - NE 26 30 14 16 - - -
22/04:30am - - - - - NE 26 32 14 17 - - -
22/04:00am - - - - - NE 19 20 10 11 - - -
22/03:30am - - - - - NE 20 24 11 13 - - -
22/03:00am - - - - - NE 19 22 10 12 - - -
22/02:30am - - - - - NE 19 20 10 11 - - -
22/02:00am - - - - - NE 17 19 9 10 - - -
22/01:30am - - - - - NNE 15 17 8 9 - - -
22/01:00am - - - - - NNE 17 20 9 11 - - -
22/12:30am - - - - - NNE 24 28 13 15 - - -
22/12:00am - - - - - N 22 26 12 14 - - -
 
Date/Time
CDT
Temp
°C
App
Temp
°C
Dew
Point
°C
Rel
Hum
%
Delta-T
°C
Wind Press
QNH
hPa
Press
MSL
hPa
Rain since
9am
mm
Dir  Spd
km/h
Gust
km/h
Spd
kts
Gust
kts
21/11:30pm - - - - - N 20 24 11 13 - - -
21/11:00pm - - - - - NNE 17 20 9 11 - - -
21/10:30pm - - - - - NE 11 15 6 8 - - -
21/10:00pm - - - - - ENE 11 15 6 8 - - -
21/09:30pm - - - - - E 11 15 6 8 - - -
21/09:00pm - - - - - ESE 11 15 6 8 - - -
21/08:30pm - - - - - ESE 13 15 7 8 - - -
21/08:00pm - - - - - ESE 11 13 6 7 - - -
21/07:30pm - - - - - SE 11 15 6 8 - - -
21/07:00pm - - - - - SSE 15 17 8 9 - - -
21/06:30pm - - - - - S 15 17 8 9 - - -
21/06:00pm - - - - - S 13 15 7 8 - - -
21/05:30pm - - - - - SSW 13 13 7 7 - - -
21/05:00pm - - - - - SSW 13 15 7 8 - - -
21/04:30pm - - - - - SSW 15 17 8 9 - - -
21/04:00pm - - - - - S 13 17 7 9 - - -
21/03:30pm - - - - - SSW 15 15 8 8 - - -
21/03:00pm - - - - - SSW 15 17 8 9 - - -
21/02:30pm - - - - - SSW 11 13 6 7 - - -
21/02:00pm - - - - - SSW 11 13 6 7 - - -
21/01:30pm - - - - - SSW 9 11 5 6 - - -
21/01:00pm - - - - - WSW 11 13 6 7 - - -
21/12:30pm - - - - - WSW 9 9 5 5 - - -
21/12:00pm - - - - - WNW 11 15 6 8 - - -
21/11:30am - - - - - NNE 9 13 5 7 - - -
21/11:00am - - - - - NNE 19 24 10 13 - - -
21/10:30am - - - - - NE 20 26 11 14 - - -
21/10:00am - - - - - NE 26 30 14 16 - - -
21/09:30am - - - - - NE 20 26 11 14 - - -
21/09:00am - - - - - NE 11 15 6 8 - - -
21/08:30am - - - - - NNE 15 17 8 9 - - -
21/08:00am - - - - - NNE 9 11 5 6 - - -
21/07:30am - - - - - NNE 13 15 7 8 - - -
21/07:00am - - - - - NE 9 13 5 7 - - -
21/06:30am - - - - - NE 9 13 5 7 - - -
21/06:00am - - - - - NE 11 15 6 8 - - -
21/05:30am - - - - - NE 11 13 6 7 - - -
21/05:00am - - - - - NE 15 19 8 10 - - -
21/04:30am - - - - - E 15 17 8 9 - - -
21/04:00am - - - - - E 17 20 9 11 - - -
21/03:30am - - - - - E 17 20 9 11 - - -
21/03:00am - - - - - E 19 24 10 13 - - -
21/02:30am - - - - - E 17 20 9 11 - - -
21/02:00am - - - - - ENE 13 17 7 9 - - -
21/01:30am - - - - - ENE 13 20 7 11 - - -
21/01:00am - - - - - ENE 15 20 8 11 - - -
21/12:30am - - - - - E 15 20 8 11 - - -
21/12:00am - - - - - ESE 15 19 8 10 - - -
 
Date/Time
CDT
Temp
°C
App
Temp
°C
Dew
Point
°C
Rel
Hum
%
Delta-T
°C
Wind Press
QNH
hPa
Press
MSL
hPa
Rain since
9am
mm
Dir  Spd
km/h
Gust
km/h
Spd
kts
Gust
kts
20/11:30pm - - - - - ESE 17 20 9 11 - - -
20/11:00pm - - - - - ESE 17 20 9 11 - - -
20/10:30pm - - - - - ESE 19 24 10 13 - - -
20/10:00pm - - - - - SE 19 22 10 12 - - -
20/09:30pm - - - - - SE 24 28 13 15 - - -
20/09:00pm - - - - - SSE 26 32 14 17 - - -
20/08:30pm - - - - - S 26 32 14 17 - - -
20/08:00pm - - - - - S 24 28 13 15 - - -
20/07:30pm - - - - - SSW 22 26 12 14 - - -
20/07:00pm - - - - - SSW 22 28 12 15 - - -
20/06:30pm - - - - - SW 20 26 11 14 - - -
20/06:00pm - - - - - SW 20 28 11 15 - - -
20/05:30pm - - - - - SSW 22 26 12 14 - - -
20/05:00pm - - - - - SW 22 28 12 15 - - -
20/04:30pm - - - - - SW 20 26 11 14 - - -
20/04:00pm - - - - - SW 13 19 7 10 - - -
20/03:30pm - - - - - SSW 26 32 14 17 - - -
20/03:00pm - - - - - SSW 20 32 11 17 - - -
20/02:30pm - - - - - SSW 19 22 10 12 - - -
20/02:00pm - - - - - SW 17 22 9 12 - - -
20/01:30pm - - - - - SW 13 17 7 9 - - -

Latest Capital City Observations: Canberra | Sydney | Melbourne | Brisbane | Adelaide | Perth | Hobart | Darwin

Other Formats:

Comma delimited format used in spreadsheet applications
http://www.bom.gov.au/fwo/IDS60901/IDS60901.95675.axf

JavaScript Object Notation format (JSON) in row-major order
http://www.bom.gov.au/fwo/IDS60901/IDS60901.95675.json